Techny, Illinois
Current Conditions -  °F | °C
As of 11:52 AM on Thursday 30 Oct 2014 (Local Time) from KPWK Reporting Station
Few Clouds Few Clouds  
Wind Chill: 50°   Ceiling: Unl
Heat Index: 50°   Visibility: 10mi
Dew Point: 34°   Wind: 7mph
Humidity: 54%   Direction: 200°SSW
Pressure: 30.12"   Gusts: NA
Location:  42.11°N, 87.83°W
Report Text: KPWK 301652Z 20006KT 10SM FEW110 10/01 A3012 RMK AO2 SLP204 T01000011
Loading
Personal Weather Stations






























Interactive Weather Map
Tropical Storm Tracking
New forecast layout! Learn more

10-Day Weather Forecast

Advertisements
Track Severe Weather on mobile